General Aviation Weather

Text Reports

Enter one or more of the following location identifiers separated by a space:

Zip Code, Four-Character ICAO or Three-Character IATA airport codes.

METAR - Aviation Routine Weather Report
KCTJ - Carrollton, Georgia
Updated at 5:55 AM GMT on July 30, 2016 (1:55 AM EDT):
METAR KCTJ 300555Z AUTO 00000KT 10SM OVC100 23/23 A3005 RMK AO2 T02340234 10276 20233 403210216
TAF - Terminal Area Forecast
KCTJ - Carrollton, Georgia
Updated at 5:55 AM GMT on July 30, 2016 (1:55 AM EDT):
No TAF is currently available for this location.
Decoded:
No decoded TAF is available.
PIREP - Pilot Weather Report
KCTJ - Carrollton, Georgia
Updated at 5:55 AM GMT on July 30, 2016 (1:55 AM EDT):
No PIREP is currently available for this location.
AIRMET - Airmens Meteorological Information
KCTJ - Carrollton, Georgia
Updated at 5:55 AM GMT on July 30, 2016 (1:55 AM EDT):
No AIRMET is currently available for this location.
SIGMET - Significant Meteorological Information
KCTJ - Carrollton, Georgia
Updated at 5:55 AM GMT on July 30, 2016 (1:55 AM EDT):
No SIGMET is currently available for this location.
NOTAM - Notice to Airmen
KCTJ - Carrollton, Georgia
Updated at 5:55 AM GMT on July 30, 2016 (1:55 AM EDT):
No NOTAM is currently available for this location.
Forecast Area
KCTJ - Carrollton, Georgia
Updated at 5:55 AM GMT on July 30, 2016 (1:55 AM EDT):
No NOTAM is currently available for this location.
Aviation Weather Maps